createdAt,value
2019-03-29T03:31:59.962Z,28.80
2019-03-29T03:34:31.088Z,28.80
2019-03-29T03:37:01.398Z,28.80
2019-03-29T03:39:32.719Z,28.80
2019-03-29T03:42:03.280Z,28.90
2019-03-29T03:44:33.619Z,28.80
2019-03-29T03:47:03.948Z,28.80
2019-03-29T03:49:35.699Z,28.80
2019-03-29T03:52:06.078Z,28.80
2019-03-29T03:54:37.091Z,28.80
2019-03-29T03:57:07.960Z,28.90
2019-03-29T03:59:38.706Z,28.80
2019-03-29T04:02:09.084Z,28.90
2019-03-29T04:04:39.453Z,28.90
2019-03-29T04:07:10.063Z,28.90
2019-03-29T04:09:49.141Z,28.90
2019-03-29T04:12:12.362Z,28.80
2019-03-29T04:14:42.738Z,28.90
2019-03-29T04:17:13.149Z,28.50
2019-03-29T04:19:43.459Z,28.90
2019-03-29T04:22:14.431Z,28.90
2019-03-29T04:24:44.768Z,28.90
2019-03-29T04:27:15.074Z,28.90
2019-03-29T04:29:47.133Z,28.90
2019-03-29T04:32:18.391Z,28.90
2019-03-29T04:34:49.275Z,28.80
2019-03-29T04:37:19.559Z,28.90
2019-03-29T04:40:06.519Z,28.80
2019-03-29T04:42:22.242Z,28.80
2019-03-29T04:44:52.789Z,29.30
2019-03-29T04:47:23.101Z,28.80
2019-03-29T04:49:53.419Z,28.80
2019-03-29T04:52:24.059Z,28.90
2019-03-29T04:54:55.095Z,28.80
2019-03-29T04:57:25.354Z,28.90
2019-03-29T04:59:55.655Z,28.90
2019-03-29T05:02:27.601Z,28.90
2019-03-29T05:04:58.041Z,28.90
2019-03-29T05:07:28.873Z,28.90
2019-03-29T05:10:21.239Z,28.80
2019-03-29T05:12:59.616Z,28.90
2019-03-29T05:15:33.901Z,28.80
2019-03-29T05:18:24.240Z,29.30
2019-03-29T05:21:06.330Z,28.90
2019-03-29T05:23:36.762Z,28.80
2019-03-29T05:26:07.070Z,28.90
2019-03-29T05:28:37.427Z,28.80
2019-03-29T05:31:07.798Z,28.90
2019-03-29T05:33:40.199Z,28.80
2019-03-29T05:36:10.509Z,28.90
2019-03-29T05:38:40.814Z,28.90
2019-03-29T05:41:11.208Z,28.80
2019-03-29T05:43:41.572Z,28.80
2019-03-29T05:46:11.917Z,28.90
2019-03-29T05:48:42.206Z,28.90
2019-03-29T05:51:12.504Z,28.80
2019-03-29T05:53:43.154Z,28.80
2019-03-29T05:56:13.519Z,28.80
2019-03-29T05:58:43.886Z,28.80
2019-03-29T06:01:14.330Z,28.80
2019-03-29T06:03:44.658Z,28.80
2019-03-29T06:06:15.254Z,28.80
2019-03-29T06:08:47.719Z,28.90
2019-03-29T06:11:18.035Z,28.80
2019-03-29T06:13:48.370Z,28.80
2019-03-29T06:16:18.774Z,28.80
2019-03-29T06:18:49.254Z,28.80
2019-03-29T06:21:19.854Z,28.70
2019-03-29T06:23:50.502Z,28.80
2019-03-29T06:26:20.826Z,28.70
2019-03-29T06:28:51.194Z,28.70
2019-03-29T06:31:21.570Z,28.60
2019-03-29T06:33:53.904Z,28.60
2019-03-29T06:36:26.171Z,28.50
2019-03-29T06:38:58.002Z,28.40
2019-03-29T06:41:28.504Z,28.40
2019-03-29T06:43:59.061Z,28.30
2019-03-29T06:46:29.377Z,28.30
2019-03-29T06:49:00.042Z,28.20
2019-03-29T06:51:30.515Z,28.20
2019-03-29T06:54:00.898Z,28.20
2019-03-29T06:56:31.202Z,28.20
2019-03-29T06:59:13.367Z,28.10
2019-03-29T07:01:55.130Z,28.10
2019-03-29T07:04:25.627Z,28.00
2019-03-29T07:06:55.949Z,28.00
2019-03-29T07:09:26.254Z,28.80
2019-03-29T07:11:56.615Z,29.50
2019-03-29T07:14:27.724Z,29.90
2019-03-29T07:16:58.027Z,30.00
2019-03-29T07:19:28.554Z,30.00
2019-03-29T07:21:59.319Z,30.20
2019-03-29T07:24:29.839Z,30.40
2019-03-29T07:27:00.363Z,30.50
2019-03-29T07:29:30.704Z,30.60
2019-03-29T07:32:03.342Z,30.50
2019-03-29T07:34:33.680Z,30.50
2019-03-29T07:37:05.886Z,30.50
2019-03-29T07:39:37.611Z,30.60
2019-03-29T07:42:08.760Z,30.60
2019-03-29T07:44:39.115Z,30.80
2019-03-29T07:47:09.790Z,30.80
2019-03-29T07:49:40.114Z,30.80
2019-03-29T07:52:10.482Z,30.80
2019-03-29T07:54:41.204Z,30.90
2019-03-29T07:57:12.373Z,31.10
2019-03-29T07:59:42.721Z,31.20
2019-03-29T08:02:14.238Z,31.20
2019-03-29T08:04:46.585Z,31.20
2019-03-29T08:07:27.200Z,31.10
2019-03-29T08:09:50.071Z,31.80
2019-03-29T08:12:22.074Z,31.80
2019-03-29T08:14:53.129Z,31.80
2019-03-29T08:17:23.690Z,31.50
2019-03-29T08:20:24.469Z,31.40
2019-03-29T08:22:26.242Z,31.50
2019-03-29T08:24:59.195Z,31.40
2019-03-29T08:27:28.758Z,31.40
2019-03-29T08:29:59.114Z,31.20
2019-03-29T08:32:30.717Z,31.10
2019-03-29T08:35:01.258Z,31.30
2019-03-29T08:37:31.786Z,31.10
2019-03-29T08:40:02.163Z,30.60
2019-03-29T08:42:32.759Z,30.30
2019-03-29T08:45:04.276Z,31.50
2019-03-29T08:47:35.335Z,30.40
2019-03-29T08:50:06.610Z,31.80
2019-03-29T08:52:36.915Z,31.50
2019-03-29T08:55:07.841Z,30.60
2019-03-29T08:57:38.442Z,30.40
2019-03-29T09:00:10.357Z,30.20
2019-03-29T09:02:41.744Z,30.10
2019-03-29T09:05:13.482Z,30.10
2019-03-29T09:07:45.333Z,30.10
2019-03-29T09:10:24.364Z,30.10
2019-03-29T09:12:54.649Z,30.00
2019-03-29T09:15:25.162Z,30.10
2019-03-29T09:17:55.644Z,30.10
2019-03-29T09:20:26.547Z,30.00
2019-03-29T09:22:56.941Z,29.90
2019-03-29T09:25:27.799Z,29.80
2019-03-29T09:27:58.296Z,29.80
2019-03-29T09:30:28.771Z,29.70
2019-03-29T09:33:00.608Z,29.70
2019-03-29T09:35:33.002Z,29.80
2019-03-29T09:38:03.495Z,29.80
2019-03-29T09:40:33.901Z,29.80
2019-03-29T09:43:08.189Z,29.70
2019-03-29T09:45:36.569Z,29.70
2019-03-29T09:48:06.922Z,29.70
2019-03-29T09:50:37.807Z,29.70
2019-03-29T09:53:08.162Z,29.90
2019-03-29T09:55:38.642Z,29.80
2019-03-29T09:58:08.987Z,29.70
2019-03-29T10:00:40.168Z,29.70
2019-03-29T10:03:11.655Z,30.00
2019-03-29T10:05:42.142Z,29.50
2019-03-29T10:08:12.541Z,29.50
2019-03-29T10:10:42.863Z,29.40
2019-03-29T10:13:14.164Z,29.40
2019-03-29T10:15:44.654Z,29.40
2019-03-29T10:18:15.874Z,29.80
2019-03-29T10:20:46.614Z,29.40
2019-03-29T10:23:17.580Z,29.40
2019-03-29T10:25:48.579Z,29.40
2019-03-29T10:28:20.405Z,29.40
2019-03-29T10:30:51.188Z,29.40
2019-03-29T10:33:22.162Z,29.40
2019-03-29T10:35:53.698Z,29.50
2019-03-29T10:38:24.111Z,29.50
2019-03-29T10:40:54.503Z,29.40
2019-03-29T10:43:25.059Z,29.40
2019-03-29T10:45:55.460Z,29.30
2019-03-29T10:48:26.785Z,29.20
2019-03-29T10:50:57.988Z,29.20
2019-03-29T10:53:28.827Z,29.20
2019-03-29T10:55:59.514Z,29.20
2019-03-29T10:58:29.823Z,29.10
2019-03-29T11:01:00.170Z,29.00
2019-03-29T11:03:30.500Z,29.10
2019-03-29T11:06:01.882Z,29.00
2019-03-29T11:08:32.606Z,29.00
2019-03-29T11:11:03.687Z,28.90
2019-03-29T11:13:33.987Z,28.90
2019-03-29T11:16:05.226Z,28.80
2019-03-29T11:18:35.656Z,28.90
2019-03-29T11:21:06.430Z,28.80
2019-03-29T11:23:36.803Z,28.80
2019-03-29T11:26:09.615Z,28.80
2019-03-29T11:28:40.094Z,28.60
2019-03-29T11:31:12.177Z,28.80
2019-03-29T11:33:43.597Z,28.80
2019-03-29T11:36:15.078Z,28.80
2019-03-29T11:38:46.102Z,28.80
2019-03-29T11:41:16.883Z,28.70
2019-03-29T11:43:47.912Z,28.90
2019-03-29T11:46:18.630Z,28.80
2019-03-29T11:48:49.299Z,28.90
2019-03-29T11:51:20.165Z,28.80
2019-03-29T11:53:51.284Z,28.80
2019-03-29T11:56:22.123Z,28.70
2019-03-29T11:58:52.447Z,28.80
2019-03-29T12:01:23.042Z,28.60
2019-03-29T12:03:55.701Z,28.60
2019-03-29T12:06:27.114Z,28.50
2019-03-29T12:08:57.609Z,28.80
2019-03-29T12:11:28.468Z,28.40
2019-03-29T12:13:58.858Z,28.30
2019-03-29T12:16:29.234Z,28.40
2019-03-29T12:19:00.643Z,28.30
2019-03-29T12:21:31.161Z,28.40
2019-03-29T12:24:01.826Z,28.40
2019-03-29T12:26:32.222Z,28.30
2019-03-29T12:29:02.549Z,28.30
2019-03-29T12:31:33.035Z,28.40
2019-03-29T12:34:04.571Z,28.40
2019-03-29T12:36:35.894Z,28.30
2019-03-29T12:39:08.045Z,28.10
2019-03-29T12:41:39.029Z,28.40
2019-03-29T12:44:10.403Z,28.50
2019-03-29T12:46:41.106Z,28.70
2019-03-29T12:49:11.438Z,28.80
2019-03-29T12:51:41.727Z,28.80
2019-03-29T12:54:12.412Z,28.50
2019-03-29T12:56:43.077Z,28.60
2019-03-29T12:59:13.571Z,28.60
2019-03-29T13:02:07.158Z,28.40
2019-03-29T13:04:37.561Z,28.40
2019-03-29T13:07:09.870Z,28.30
2019-03-29T13:09:40.323Z,28.40
2019-03-29T13:12:11.152Z,28.40
2019-03-29T13:14:42.060Z,28.10
2019-03-29T13:17:12.938Z,28.20
2019-03-29T13:19:44.382Z,28.60
2019-03-29T13:22:14.891Z,28.30
2019-03-29T13:24:45.243Z,28.30
2019-03-29T13:27:15.639Z,28.50
2019-03-29T13:29:46.211Z,28.30
2019-03-29T13:32:19.609Z,28.20
2019-03-29T13:34:51.431Z,28.20
2019-03-29T13:37:22.197Z,28.00
2019-03-29T13:39:52.492Z,28.10
2019-03-29T13:42:22.890Z,28.20
2019-03-29T13:44:53.185Z,28.20
2019-03-29T13:47:23.486Z,28.20
2019-03-29T13:49:54.629Z,28.20
2019-03-29T13:52:25.325Z,28.00
2019-03-29T13:54:55.885Z,28.10
2019-03-29T13:57:26.617Z,28.10
2019-03-29T13:59:57.439Z,28.00
2019-03-29T14:02:28.290Z,27.90
2019-03-29T14:05:00.472Z,27.60
2019-03-29T14:07:32.219Z,27.70
2019-03-29T14:10:02.837Z,27.70
2019-03-29T14:12:33.153Z,27.80
2019-03-29T14:15:05.751Z,27.70
2019-03-29T14:17:38.454Z,27.80
2019-03-29T14:20:10.830Z,27.60
2019-03-29T14:22:41.114Z,27.60
2019-03-29T14:25:11.611Z,27.40
2019-03-29T14:27:42.045Z,27.50
2019-03-29T14:30:12.548Z,27.70
2019-03-29T14:32:44.678Z,27.70
2019-03-29T14:35:15.063Z,27.60
2019-03-29T14:37:45.538Z,27.40
2019-03-29T14:40:16.671Z,27.50
2019-03-29T14:42:47.633Z,27.40
2019-03-29T14:45:19.137Z,27.50
2019-03-29T14:47:49.931Z,27.40
2019-03-29T14:50:20.330Z,27.40
2019-03-29T14:52:50.750Z,27.50
2019-03-29T14:55:21.087Z,27.60
2019-03-29T14:57:51.402Z,27.60
2019-03-29T15:00:39.345Z,27.50
2019-03-29T15:03:10.591Z,27.50
2019-03-29T15:05:42.071Z,27.50
2019-03-29T15:08:13.579Z,27.60
2019-03-29T15:10:45.824Z,27.50
2019-03-29T15:13:16.288Z,27.40
2019-03-29T15:15:47.159Z,27.50
2019-03-29T15:18:17.970Z,27.40
2019-03-29T15:20:53.812Z,27.60
2019-03-29T15:23:20.390Z,27.50
2019-03-29T15:25:51.394Z,27.40
2019-03-29T15:28:21.830Z,27.60
2019-03-29T15:30:52.479Z,27.70
2019-03-29T15:33:26.479Z,27.60
2019-03-29T15:35:56.801Z,27.60
2019-03-29T15:38:27.290Z,27.60
2019-03-29T15:40:57.646Z,27.60
2019-03-29T15:43:28.074Z,27.60
2019-03-29T15:45:58.429Z,27.60
2019-03-29T15:48:30.046Z,27.60
2019-03-29T15:51:01.802Z,27.70
2019-03-29T15:53:32.093Z,27.70
2019-03-29T15:56:03.975Z,27.80
2019-03-29T16:01:04.419Z,28.40
2019-03-29T16:03:34.725Z,27.90
2019-03-29T16:06:05.091Z,27.90
2019-03-29T16:08:35.389Z,28.00
2019-03-29T16:11:09.077Z,28.00
2019-03-29T16:13:38.390Z,28.00
2019-03-29T16:16:08.694Z,28.00
2019-03-29T16:18:39.203Z,28.00
2019-03-29T16:21:09.494Z,28.00
2019-03-29T16:23:39.949Z,28.00
2019-03-29T16:26:10.393Z,28.10
2019-03-29T16:28:41.737Z,28.00
2019-03-29T16:31:12.286Z,28.10
2019-03-29T16:33:42.698Z,28.00
2019-03-29T16:36:14.956Z,28.10
2019-03-29T16:38:45.289Z,28.10
2019-03-29T16:41:15.994Z,28.10
2019-03-29T16:43:48.381Z,28.10
2019-03-29T16:46:18.666Z,28.10
2019-03-29T16:48:49.169Z,28.10
2019-03-29T16:51:19.469Z,28.10
2019-03-29T16:53:50.462Z,28.10
2019-03-29T16:56:20.751Z,28.10
2019-03-29T16:58:52.716Z,28.10
2019-03-29T17:01:23.011Z,28.10
2019-03-29T17:03:53.314Z,28.10
2019-03-29T17:06:23.614Z,28.10
2019-03-29T17:08:54.231Z,28.10
2019-03-29T17:11:24.719Z,28.20
2019-03-29T17:13:55.098Z,28.20
2019-03-29T17:16:30.626Z,28.20
2019-03-29T17:18:57.442Z,28.20
2019-03-29T17:21:28.075Z,28.20
2019-03-29T17:23:58.403Z,28.20
2019-03-29T17:26:28.701Z,28.20
2019-03-29T17:28:59.034Z,28.20
2019-03-29T17:31:29.788Z,28.20
2019-03-29T17:34:01.633Z,28.20
2019-03-29T17:36:31.958Z,28.20
2019-03-29T17:39:02.264Z,28.10
2019-03-29T17:41:32.609Z,28.10
2019-03-29T17:44:05.590Z,28.10
2019-03-29T17:46:36.230Z,28.10
2019-03-29T17:49:07.876Z,28.20
2019-03-29T17:51:38.258Z,28.20
2019-03-29T17:54:08.546Z,28.60
2019-03-29T17:56:38.990Z,28.20
2019-03-29T17:59:12.045Z,28.20
2019-03-29T18:01:42.486Z,28.30
2019-03-29T18:04:12.878Z,28.20
2019-03-29T18:06:43.182Z,28.20
2019-03-29T18:09:13.548Z,28.30
2019-03-29T18:11:43.860Z,28.30
2019-03-29T18:14:14.162Z,28.30
2019-03-29T18:16:45.131Z,28.30
2019-03-29T18:19:17.734Z,28.30
2019-03-29T18:21:48.155Z,28.30
2019-03-29T18:24:18.531Z,28.30
2019-03-29T18:26:48.826Z,28.30
2019-03-29T18:29:19.374Z,28.40
2019-03-29T18:31:50.522Z,28.30
2019-03-29T18:34:20.897Z,28.30
2019-03-29T18:36:52.202Z,28.30
2019-03-29T18:39:23.078Z,28.30
2019-03-29T18:41:53.401Z,28.20
2019-03-29T18:44:26.805Z,28.30
2019-03-29T18:46:57.832Z,28.30
2019-03-29T18:49:28.149Z,28.20
2019-03-29T18:51:58.455Z,28.30
2019-03-29T18:54:28.783Z,28.30
2019-03-29T18:56:59.245Z,28.30
2019-03-29T18:59:29.551Z,28.30
2019-03-29T19:02:00.147Z,28.30
2019-03-29T19:04:31.151Z,28.20
2019-03-29T19:07:01.466Z,28.30
2019-03-29T19:09:33.414Z,28.30
2019-03-29T19:12:03.714Z,28.30
2019-03-29T19:14:34.019Z,28.30
2019-03-29T19:17:04.398Z,28.30
2019-03-29T19:19:34.837Z,28.30
2019-03-29T19:22:05.138Z,28.30
2019-03-29T19:24:37.820Z,28.40
2019-03-29T19:27:08.114Z,28.40
2019-03-29T19:29:38.448Z,28.40
2019-03-29T19:32:08.816Z,28.40
2019-03-29T19:34:39.114Z,28.40
2019-03-29T19:37:09.405Z,28.40
2019-03-29T19:39:40.101Z,28.40
2019-03-29T19:42:10.395Z,28.40
2019-03-29T19:44:42.258Z,28.40
2019-03-29T19:47:13.982Z,28.40
2019-03-29T19:49:44.641Z,28.40
2019-03-29T19:52:14.927Z,28.40
2019-03-29T19:54:45.307Z,28.40
2019-03-29T19:57:15.594Z,28.40
2019-03-29T19:59:48.130Z,28.40
2019-03-29T20:02:19.637Z,28.40
2019-03-29T20:04:49.929Z,28.40
2019-03-29T20:07:20.498Z,28.40
2019-03-29T20:09:50.917Z,28.40
2019-03-29T20:12:21.269Z,28.40
2019-03-29T20:14:51.576Z,28.40
2019-03-29T20:17:27.641Z,28.40
2019-03-29T20:19:54.629Z,28.40
2019-03-29T20:22:25.229Z,28.40
2019-03-29T20:24:55.522Z,28.70
2019-03-29T20:27:25.828Z,28.40
2019-03-29T20:29:56.111Z,28.30
2019-03-29T20:32:26.453Z,28.80
2019-03-29T20:34:56.935Z,28.30
2019-03-29T20:37:27.214Z,28.40
2019-03-29T20:39:57.506Z,28.40
2019-03-29T20:42:27.802Z,28.40
2019-03-29T20:44:58.540Z,28.40
2019-03-29T20:47:41.520Z,28.40
2019-03-29T20:50:02.946Z,28.40
2019-03-29T20:52:34.793Z,28.40
2019-03-29T20:55:05.102Z,28.40
2019-03-29T20:57:35.386Z,28.40
2019-03-29T21:00:08.109Z,28.40
2019-03-29T21:02:39.526Z,28.40
2019-03-29T21:05:10.795Z,28.40
2019-03-29T21:07:41.174Z,28.40
2019-03-29T21:10:11.839Z,28.40
2019-03-29T21:12:42.309Z,28.40
2019-03-29T21:15:13.286Z,28.40
2019-03-29T21:17:56.023Z,28.40
2019-03-29T21:20:17.086Z,28.40
2019-03-29T21:22:47.468Z,28.40
2019-03-29T21:25:17.766Z,28.40
2019-03-29T21:27:48.082Z,28.40
2019-03-29T21:30:18.838Z,28.40
2019-03-29T21:32:49.346Z,28.40
2019-03-29T21:35:19.652Z,28.40
2019-03-29T21:37:49.947Z,28.40
2019-03-29T21:40:20.318Z,28.40
2019-03-29T21:42:50.658Z,28.40
2019-03-29T21:45:28.475Z,28.40
2019-03-29T21:48:04.113Z,28.40
2019-03-29T21:50:27.554Z,28.40
2019-03-29T21:52:58.190Z,28.40
2019-03-29T21:55:28.526Z,28.40
2019-03-29T21:57:58.819Z,28.40
2019-03-29T22:00:29.221Z,28.40
2019-03-29T22:03:01.431Z,28.40
2019-03-29T22:05:31.724Z,28.40
2019-03-29T22:08:02.035Z,28.40
2019-03-29T22:10:32.323Z,28.40
2019-03-29T22:13:03.046Z,28.40
2019-03-29T22:15:33.329Z,28.40
2019-03-29T22:18:06.795Z,28.40
2019-03-29T22:20:35.953Z,28.40
2019-03-29T22:23:06.287Z,28.40
2019-03-29T22:25:36.594Z,28.40
2019-03-29T22:28:06.886Z,28.40
2019-03-29T22:30:37.258Z,28.40
2019-03-29T22:33:07.594Z,28.40
2019-03-29T22:35:38.513Z,28.40
2019-03-29T22:38:10.279Z,28.40
2019-03-29T22:40:41.211Z,28.40
2019-03-29T22:43:11.502Z,28.40
2019-03-29T22:45:42.475Z,28.40
2019-03-29T22:48:13.738Z,28.40
2019-03-29T22:50:44.021Z,28.50
2019-03-29T22:53:14.310Z,28.50
2019-03-29T22:55:44.602Z,28.50
2019-03-29T22:58:14.923Z,28.40
2019-03-29T23:00:49.640Z,28.40
2019-03-29T23:03:21.300Z,28.40
2019-03-29T23:05:51.734Z,28.40
2019-03-29T23:08:22.042Z,28.40
2019-03-29T23:10:52.318Z,28.50
2019-03-29T23:13:22.607Z,28.40
2019-03-29T23:15:52.957Z,28.50
2019-03-29T23:18:23.249Z,28.40
2019-03-29T23:20:53.542Z,28.40
2019-03-29T23:23:24.302Z,28.50
2019-03-29T23:25:55.677Z,28.50
2019-03-29T23:28:26.386Z,28.50
2019-03-29T23:30:56.679Z,28.50
2019-03-29T23:33:26.985Z,28.40
2019-03-29T23:36:07.227Z,28.50
2019-03-29T23:38:38.282Z,28.40
2019-03-29T23:41:08.606Z,28.40
2019-03-29T23:43:39.066Z,28.50
2019-03-29T23:46:10.728Z,28.50
2019-03-29T23:48:41.019Z,28.50
2019-03-29T23:51:11.305Z,28.40
2019-03-29T23:53:41.608Z,28.50
2019-03-29T23:56:11.931Z,28.50
2019-03-29T23:58:42.409Z,28.50
